sensor_id;sensor_type;location;lat;lon;timestamp;P1;durP1;ratioP1;P2;durP2;ratioP2
2362;SDS011;64265;51.664;7.626;2023-02-28T00:00:27;10.10;;;5.88;;
2362;SDS011;64265;51.664;7.626;2023-02-28T00:02:55;9.73;;;5.90;;
2362;SDS011;64265;51.664;7.626;2023-02-28T00:05:22;6.43;;;5.38;;
2362;SDS011;64265;51.664;7.626;2023-02-28T00:07:50;6.40;;;4.82;;
2362;SDS011;64265;51.664;7.626;2023-02-28T00:10:18;6.32;;;5.25;;
2362;SDS011;64265;51.664;7.626;2023-02-28T00:12:47;7.70;;;5.00;;
2362;SDS011;64265;51.664;7.626;2023-02-28T00:15:14;6.32;;;5.03;;
2362;SDS011;64265;51.664;7.626;2023-02-28T00:17:41;9.82;;;5.50;;
2362;SDS011;64265;51.664;7.626;2023-02-28T00:20:10;6.32;;;4.70;;
2362;SDS011;64265;51.664;7.626;2023-02-28T00:22:38;5.97;;;5.40;;
2362;SDS011;64265;51.664;7.626;2023-02-28T00:25:07;6.38;;;5.28;;
2362;SDS011;64265;51.664;7.626;2023-02-28T00:27:34;6.30;;;5.35;;
2362;SDS011;64265;51.664;7.626;2023-02-28T00:30:01;6.65;;;5.32;;
2362;SDS011;64265;51.664;7.626;2023-02-28T00:32:29;6.25;;;5.65;;
2362;SDS011;64265;51.664;7.626;2023-02-28T00:34:55;5.72;;;5.05;;
2362;SDS011;64265;51.664;7.626;2023-02-28T00:37:24;5.60;;;5.10;;
2362;SDS011;64265;51.664;7.626;2023-02-28T00:39:50;5.68;;;5.07;;
2362;SDS011;64265;51.664;7.626;2023-02-28T00:42:17;5.70;;;4.93;;
2362;SDS011;64265;51.664;7.626;2023-02-28T00:44:44;7.18;;;5.60;;
2362;SDS011;64265;51.664;7.626;2023-02-28T00:47:10;6.22;;;5.40;;
2362;SDS011;64265;51.664;7.626;2023-02-28T00:49:37;6.65;;;5.35;;
2362;SDS011;64265;51.664;7.626;2023-02-28T00:52:04;5.90;;;5.30;;
2362;SDS011;64265;51.664;7.626;2023-02-28T00:54:32;6.13;;;4.60;;
2362;SDS011;64265;51.664;7.626;2023-02-28T00:56:59;6.88;;;5.60;;
2362;SDS011;64265;51.664;7.626;2023-02-28T00:59:25;6.35;;;4.93;;
2362;SDS011;64265;51.664;7.626;2023-02-28T01:01:52;5.38;;;4.95;;
2362;SDS011;64265;51.664;7.626;2023-02-28T01:04:19;7.18;;;5.43;;
2362;SDS011;64265;51.664;7.626;2023-02-28T01:06:45;7.22;;;5.55;;
2362;SDS011;64265;51.664;7.626;2023-02-28T01:09:12;7.90;;;5.35;;
2362;SDS011;64265;51.664;7.626;2023-02-28T01:11:40;5.25;;;4.63;;
2362;SDS011;64265;51.664;7.626;2023-02-28T01:14:10;4.95;;;4.53;;
2362;SDS011;64265;51.664;7.626;2023-02-28T01:16:39;6.63;;;5.80;;
2362;SDS011;64265;51.664;7.626;2023-02-28T01:19:06;5.72;;;5.10;;
2362;SDS011;64265;51.664;7.626;2023-02-28T01:21:32;5.60;;;5.05;;
2362;SDS011;64265;51.664;7.626;2023-02-28T01:24:00;6.18;;;4.85;;
2362;SDS011;64265;51.664;7.626;2023-02-28T01:26:27;10.68;;;6.40;;
2362;SDS011;64265;51.664;7.626;2023-02-28T01:28:55;4.95;;;4.50;;
2362;SDS011;64265;51.664;7.626;2023-02-28T01:31:22;5.70;;;5.20;;
2362;SDS011;64265;51.664;7.626;2023-02-28T01:33:49;6.88;;;5.22;;
2362;SDS011;64265;51.664;7.626;2023-02-28T01:36:17;7.75;;;5.53;;
2362;SDS011;64265;51.664;7.626;2023-02-28T01:38:45;6.93;;;5.18;;
2362;SDS011;64265;51.664;7.626;2023-02-28T01:41:14;6.05;;;5.28;;
2362;SDS011;64265;51.664;7.626;2023-02-28T01:44:01;6.15;;;5.03;;
2362;SDS011;64265;51.664;7.626;2023-02-28T01:46:30;6.35;;;5.50;;
2362;SDS011;64265;51.664;7.626;2023-02-28T01:48:59;5.97;;;5.38;;
2362;SDS011;64265;51.664;7.626;2023-02-28T01:51:30;6.05;;;5.25;;
2362;SDS011;64265;51.664;7.626;2023-02-28T01:54:05;6.10;;;5.32;;
2362;SDS011;64265;51.664;7.626;2023-02-28T01:56:38;6.75;;;4.90;;
2362;SDS011;64265;51.664;7.626;2023-02-28T01:59:10;5.45;;;4.90;;
2362;SDS011;64265;51.664;7.626;2023-02-28T02:01:39;4.72;;;4.32;;
2362;SDS011;64265;51.664;7.626;2023-02-28T02:04:06;5.47;;;4.35;;
2362;SDS011;64265;51.664;7.626;2023-02-28T02:06:34;5.00;;;4.50;;
2362;SDS011;64265;51.664;7.626;2023-02-28T02:09:03;5.55;;;4.95;;
2362;SDS011;64265;51.664;7.626;2023-02-28T02:11:31;6.45;;;5.30;;
2362;SDS011;64265;51.664;7.626;2023-02-28T02:14:05;6.13;;;4.72;;
2362;SDS011;64265;51.664;7.626;2023-02-28T02:16:52;5.47;;;4.93;;
2362;SDS011;64265;51.664;7.626;2023-02-28T02:19:33;4.95;;;4.25;;
2362;SDS011;64265;51.664;7.626;2023-02-28T02:25:28;6.30;;;5.20;;
2362;SDS011;64265;51.664;7.626;2023-02-28T02:36:57;6.60;;;5.07;;
2362;SDS011;64265;51.664;7.626;2023-02-28T02:39:31;5.03;;;4.57;;
2362;SDS011;64265;51.664;7.626;2023-02-28T02:42:11;5.63;;;5.03;;
2362;SDS011;64265;51.664;7.626;2023-02-28T02:44:43;5.25;;;4.75;;
2362;SDS011;64265;51.664;7.626;2023-02-28T02:47:15;5.40;;;4.90;;
2362;SDS011;64265;51.664;7.626;2023-02-28T02:49:46;5.82;;;4.80;;
2362;SDS011;64265;51.664;7.626;2023-02-28T02:52:16;9.25;;;6.35;;
2362;SDS011;64265;51.664;7.626;2023-02-28T02:54:48;5.20;;;4.70;;
2362;SDS011;64265;51.664;7.626;2023-02-28T02:57:19;5.20;;;4.70;;
2362;SDS011;64265;51.664;7.626;2023-02-28T02:59:49;7.43;;;5.57;;
2362;SDS011;64265;51.664;7.626;2023-02-28T03:02:19;7.25;;;5.00;;
2362;SDS011;64265;51.664;7.626;2023-02-28T03:04:50;5.00;;;4.53;;
2362;SDS011;64265;51.664;7.626;2023-02-28T03:07:19;4.70;;;4.20;;
2362;SDS011;64265;51.664;7.626;2023-02-28T03:09:50;4.47;;;4.05;;
2362;SDS011;64265;51.664;7.626;2023-02-28T03:12:18;4.97;;;4.43;;
2362;SDS011;64265;51.664;7.626;2023-02-28T03:14:51;5.18;;;4.68;;
2362;SDS011;64265;51.664;7.626;2023-02-28T03:17:25;5.60;;;4.88;;
2362;SDS011;64265;51.664;7.626;2023-02-28T03:20:03;5.22;;;4.80;;
2362;SDS011;64265;51.664;7.626;2023-02-28T03:22:43;4.18;;;3.58;;
2362;SDS011;64265;51.664;7.626;2023-02-28T03:25:18;6.15;;;5.63;;
2362;SDS011;64265;51.664;7.626;2023-02-28T03:27:54;4.70;;;4.20;;
2362;SDS011;64265;51.664;7.626;2023-02-28T03:30:27;5.05;;;4.50;;
2362;SDS011;64265;51.664;7.626;2023-02-28T03:33:02;4.80;;;4.40;;
2362;SDS011;64265;51.664;7.626;2023-02-28T03:35:34;4.97;;;4.57;;
2362;SDS011;64265;51.664;7.626;2023-02-28T03:38:06;4.72;;;4.20;;
2362;SDS011;64265;51.664;7.626;2023-02-28T04:17:44;4.55;;;4.15;;
2362;SDS011;64265;51.664;7.626;2023-02-28T04:20:11;4.97;;;4.10;;
2362;SDS011;64265;51.664;7.626;2023-02-28T04:22:38;5.05;;;4.63;;
2362;SDS011;64265;51.664;7.626;2023-02-28T04:25:05;4.55;;;3.95;;
2362;SDS011;64265;51.664;7.626;2023-02-28T04:27:33;4.20;;;3.90;;
2362;SDS011;64265;51.664;7.626;2023-02-28T04:30:00;3.75;;;3.50;;
2362;SDS011;64265;51.664;7.626;2023-02-28T04:32:26;4.82;;;4.32;;
2362;SDS011;64265;51.664;7.626;2023-02-28T04:34:54;5.45;;;3.95;;
2362;SDS011;64265;51.664;7.626;2023-02-28T04:37:21;3.67;;;3.30;;
2362;SDS011;64265;51.664;7.626;2023-02-28T04:39:52;4.55;;;4.18;;
2362;SDS011;64265;51.664;7.626;2023-02-28T04:42:19;6.22;;;4.53;;
2362;SDS011;64265;51.664;7.626;2023-02-28T04:44:46;4.03;;;3.72;;
2362;SDS011;64265;51.664;7.626;2023-02-28T04:47:13;4.65;;;3.60;;
2362;SDS011;64265;51.664;7.626;2023-02-28T04:49:39;4.35;;;3.50;;
2362;SDS011;64265;51.664;7.626;2023-02-28T04:52:08;5.78;;;3.72;;
2362;SDS011;64265;51.664;7.626;2023-02-28T04:54:35;3.70;;;3.40;;
2362;SDS011;64265;51.664;7.626;2023-02-28T04:57:03;4.25;;;3.85;;
2362;SDS011;64265;51.664;7.626;2023-02-28T04:59:30;4.40;;;4.00;;
2362;SDS011;64265;51.664;7.626;2023-02-28T05:01:57;4.20;;;3.85;;
2362;SDS011;64265;51.664;7.626;2023-02-28T05:04:24;3.85;;;3.55;;
2362;SDS011;64265;51.664;7.626;2023-02-28T05:06:51;5.15;;;4.40;;
2362;SDS011;64265;51.664;7.626;2023-02-28T05:09:19;3.92;;;3.63;;
2362;SDS011;64265;51.664;7.626;2023-02-28T05:11:45;3.72;;;3.42;;
2362;SDS011;64265;51.664;7.626;2023-02-28T05:14:13;3.63;;;3.33;;
2362;SDS011;64265;51.664;7.626;2023-02-28T05:16:40;3.65;;;3.35;;
2362;SDS011;64265;51.664;7.626;2023-02-28T05:19:06;3.70;;;3.40;;
2362;SDS011;64265;51.664;7.626;2023-02-28T05:21:34;3.30;;;3.00;;
2362;SDS011;64265;51.664;7.626;2023-02-28T05:24:02;3.55;;;3.30;;
2362;SDS011;64265;51.664;7.626;2023-02-28T05:26:34;3.83;;;3.53;;
2362;SDS011;64265;51.664;7.626;2023-02-28T05:29:01;3.92;;;3.58;;
2362;SDS011;64265;51.664;7.626;2023-02-28T05:31:28;3.40;;;3.13;;
2362;SDS011;64265;51.664;7.626;2023-02-28T05:33:55;3.53;;;3.22;;
2362;SDS011;64265;51.664;7.626;2023-02-28T05:36:22;2.88;;;2.63;;
2362;SDS011;64265;51.664;7.626;2023-02-28T05:38:48;4.95;;;3.92;;
2362;SDS011;64265;51.664;7.626;2023-02-28T05:41:16;3.70;;;3.40;;
2362;SDS011;64265;51.664;7.626;2023-02-28T05:43:45;3.72;;;3.38;;
2362;SDS011;64265;51.664;7.626;2023-02-28T05:46:13;5.47;;;3.70;;
2362;SDS011;64265;51.664;7.626;2023-02-28T05:48:40;3.83;;;3.53;;
2362;SDS011;64265;51.664;7.626;2023-02-28T05:51:08;3.63;;;3.33;;
2362;SDS011;64265;51.664;7.626;2023-02-28T05:53:35;3.60;;;3.25;;
2362;SDS011;64265;51.664;7.626;2023-02-28T05:56:02;3.90;;;3.47;;
2362;SDS011;64265;51.664;7.626;2023-02-28T05:58:29;4.18;;;3.85;;
2362;SDS011;64265;51.664;7.626;2023-02-28T06:00:58;3.17;;;2.97;;
2362;SDS011;64265;51.664;7.626;2023-02-28T06:03:25;3.58;;;3.22;;
2362;SDS011;64265;51.664;7.626;2023-02-28T06:05:52;3.78;;;3.38;;
2362;SDS011;64265;51.664;7.626;2023-02-28T06:08:19;3.45;;;3.10;;
2362;SDS011;64265;51.664;7.626;2023-02-28T06:10:46;3.70;;;3.38;;
2362;SDS011;64265;51.664;7.626;2023-02-28T06:13:12;3.33;;;3.03;;
2362;SDS011;64265;51.664;7.626;2023-02-28T06:15:39;3.17;;;2.88;;
2362;SDS011;64265;51.664;7.626;2023-02-28T06:18:07;3.25;;;3.05;;
2362;SDS011;64265;51.664;7.626;2023-02-28T06:20:34;3.78;;;3.30;;
2362;SDS011;64265;51.664;7.626;2023-02-28T06:23:01;3.17;;;2.97;;
2362;SDS011;64265;51.664;7.626;2023-02-28T06:25:28;3.90;;;3.20;;
2362;SDS011;64265;51.664;7.626;2023-02-28T06:27:55;3.30;;;3.00;;
2362;SDS011;64265;51.664;7.626;2023-02-28T06:30:22;3.15;;;2.95;;
2362;SDS011;64265;51.664;7.626;2023-02-28T06:32:51;3.38;;;2.75;;
2362;SDS011;64265;51.664;7.626;2023-02-28T06:35:20;4.38;;;3.22;;
2362;SDS011;64265;51.664;7.626;2023-02-28T06:37:47;2.88;;;2.65;;
2362;SDS011;64265;51.664;7.626;2023-02-28T06:40:14;3.50;;;3.20;;
2362;SDS011;64265;51.664;7.626;2023-02-28T06:42:41;4.00;;;3.70;;
2362;SDS011;64265;51.664;7.626;2023-02-28T06:45:08;4.68;;;3.00;;
2362;SDS011;64265;51.664;7.626;2023-02-28T06:47:36;3.10;;;2.78;;
2362;SDS011;64265;51.664;7.626;2023-02-28T06:50:04;3.40;;;2.58;;
2362;SDS011;64265;51.664;7.626;2023-02-28T06:52:33;2.90;;;2.70;;
2362;SDS011;64265;51.664;7.626;2023-02-28T06:55:01;3.03;;;2.83;;
2362;SDS011;64265;51.664;7.626;2023-02-28T06:57:28;3.40;;;2.50;;
2362;SDS011;64265;51.664;7.626;2023-02-28T06:59:56;5.22;;;3.33;;
2362;SDS011;64265;51.664;7.626;2023-02-28T07:02:23;3.53;;;2.83;;
2362;SDS011;64265;51.664;7.626;2023-02-28T07:04:50;2.83;;;2.60;;
2362;SDS011;64265;51.664;7.626;2023-02-28T07:07:17;3.80;;;3.25;;
2362;SDS011;64265;51.664;7.626;2023-02-28T07:09:45;3.15;;;2.85;;
2362;SDS011;64265;51.664;7.626;2023-02-28T07:12:11;3.42;;;3.13;;
2362;SDS011;64265;51.664;7.626;2023-02-28T07:14:38;5.20;;;3.65;;
2362;SDS011;64265;51.664;7.626;2023-02-28T07:17:06;3.55;;;2.92;;
2362;SDS011;64265;51.664;7.626;2023-02-28T07:19:33;5.55;;;2.80;;
2362;SDS011;64265;51.664;7.626;2023-02-28T07:22:00;3.70;;;3.40;;
2362;SDS011;64265;51.664;7.626;2023-02-28T07:24:27;4.10;;;2.35;;
2362;SDS011;64265;51.664;7.626;2023-02-28T07:26:56;3.53;;;3.22;;
2362;SDS011;64265;51.664;7.626;2023-02-28T07:29:22;5.25;;;3.00;;
2362;SDS011;64265;51.664;7.626;2023-02-28T07:31:49;2.92;;;2.72;;
2362;SDS011;64265;51.664;7.626;2023-02-28T07:34:18;4.00;;;2.70;;
2362;SDS011;64265;51.664;7.626;2023-02-28T07:36:44;4.45;;;3.10;;
2362;SDS011;64265;51.664;7.626;2023-02-28T07:39:11;2.88;;;2.53;;
2362;SDS011;64265;51.664;7.626;2023-02-28T07:41:38;3.78;;;2.22;;
2362;SDS011;64265;51.664;7.626;2023-02-28T07:44:09;2.40;;;2.20;;
2362;SDS011;64265;51.664;7.626;2023-02-28T07:46:37;2.95;;;2.65;;
2362;SDS011;64265;51.664;7.626;2023-02-28T07:49:04;2.50;;;2.22;;
2362;SDS011;64265;51.664;7.626;2023-02-28T07:51:31;3.10;;;2.80;;
2362;SDS011;64265;51.664;7.626;2023-02-28T07:53:58;2.47;;;2.28;;
2362;SDS011;64265;51.664;7.626;2023-02-28T07:56:25;2.70;;;2.50;;
2362;SDS011;64265;51.664;7.626;2023-02-28T07:58:51;2.88;;;2.55;;
2362;SDS011;64265;51.664;7.626;2023-02-28T08:01:19;2.90;;;2.63;;
2362;SDS011;64265;51.664;7.626;2023-02-28T08:03:46;4.10;;;2.95;;
2362;SDS011;64265;51.664;7.626;2023-02-28T08:06:17;2.75;;;2.53;;
2362;SDS011;64265;51.664;7.626;2023-02-28T08:08:47;3.42;;;3.13;;
2362;SDS011;64265;51.664;7.626;2023-02-28T08:11:14;5.68;;;2.60;;
2362;SDS011;64265;51.664;7.626;2023-02-28T08:13:42;2.80;;;2.60;;
2362;SDS011;64265;51.664;7.626;2023-02-28T08:16:10;3.97;;;2.53;;
2362;SDS011;64265;51.664;7.626;2023-02-28T08:18:40;2.55;;;2.35;;
2362;SDS011;64265;51.664;7.626;2023-02-28T08:21:07;2.58;;;2.38;;
2362;SDS011;64265;51.664;7.626;2023-02-28T08:23:34;3.05;;;2.47;;
2362;SDS011;64265;51.664;7.626;2023-02-28T08:26:01;2.70;;;2.50;;
2362;SDS011;64265;51.664;7.626;2023-02-28T08:28:29;2.17;;;1.90;;
2362;SDS011;64265;51.664;7.626;2023-02-28T08:30:55;2.13;;;1.93;;
2362;SDS011;64265;51.664;7.626;2023-02-28T08:33:22;2.13;;;1.93;;
2362;SDS011;64265;51.664;7.626;2023-02-28T08:35:53;2.33;;;2.13;;
2362;SDS011;64265;51.664;7.626;2023-02-28T08:38:20;2.50;;;2.30;;
2362;SDS011;64265;51.664;7.626;2023-02-28T08:40:47;3.03;;;2.67;;
2362;SDS011;64265;51.664;7.626;2023-02-28T08:43:14;3.60;;;1.95;;
2362;SDS011;64265;51.664;7.626;2023-02-28T08:45:41;2.10;;;1.90;;
2362;SDS011;64265;51.664;7.626;2023-02-28T08:48:07;3.20;;;2.65;;
2362;SDS011;64265;51.664;7.626;2023-02-28T08:50:34;2.83;;;2.63;;
2362;SDS011;64265;51.664;7.626;2023-02-28T08:53:02;2.75;;;2.55;;
2362;SDS011;64265;51.664;7.626;2023-02-28T08:55:29;8.68;;;3.00;;
2362;SDS011;64265;51.664;7.626;2023-02-28T08:57:56;5.43;;;2.40;;
2362;SDS011;64265;51.664;7.626;2023-02-28T09:00:23;2.58;;;2.38;;
2362;SDS011;64265;51.664;7.626;2023-02-28T09:02:50;3.13;;;2.83;;
2362;SDS011;64265;51.664;7.626;2023-02-28T09:05:16;8.68;;;2.60;;
2362;SDS011;64265;51.664;7.626;2023-02-28T09:07:43;5.27;;;2.30;;
2362;SDS011;64265;51.664;7.626;2023-02-28T09:10:11;5.85;;;2.50;;
2362;SDS011;64265;51.664;7.626;2023-02-28T09:12:38;2.83;;;2.58;;
2362;SDS011;64265;51.664;7.626;2023-02-28T09:15:05;4.22;;;2.45;;
2362;SDS011;64265;51.664;7.626;2023-02-28T09:17:33;2.10;;;1.90;;
2362;SDS011;64265;51.664;7.626;2023-02-28T09:19:59;2.50;;;2.30;;
2362;SDS011;64265;51.664;7.626;2023-02-28T09:22:26;2.40;;;2.20;;
2362;SDS011;64265;51.664;7.626;2023-02-28T09:24:53;2.47;;;1.93;;
2362;SDS011;64265;51.664;7.626;2023-02-28T09:27:21;1.95;;;1.75;;
2362;SDS011;64265;51.664;7.626;2023-02-28T09:29:47;2.23;;;2.03;;
2362;SDS011;64265;51.664;7.626;2023-02-28T09:32:14;2.28;;;2.10;;
2362;SDS011;64265;51.664;7.626;2023-02-28T09:34:42;2.10;;;1.83;;
2362;SDS011;64265;51.664;7.626;2023-02-28T09:37:09;3.73;;;2.17;;
2362;SDS011;64265;51.664;7.626;2023-02-28T09:39:36;3.83;;;2.80;;
2362;SDS011;64265;51.664;7.626;2023-02-28T09:42:03;2.47;;;2.27;;
2362;SDS011;64265;51.664;7.626;2023-02-28T09:44:35;2.35;;;1.90;;
2362;SDS011;64265;51.664;7.626;2023-02-28T09:47:05;2.35;;;2.15;;
2362;SDS011;64265;51.664;7.626;2023-02-28T09:49:38;2.20;;;2.00;;
2362;SDS011;64265;51.664;7.626;2023-02-28T09:52:09;1.93;;;1.50;;
2362;SDS011;64265;51.664;7.626;2023-02-28T09:54:38;2.30;;;2.10;;
2362;SDS011;64265;51.664;7.626;2023-02-28T09:57:06;2.60;;;2.20;;
2362;SDS011;64265;51.664;7.626;2023-02-28T10:02:40;2.17;;;1.98;;
2362;SDS011;64265;51.664;7.626;2023-02-28T10:05:18;2.13;;;1.70;;
2362;SDS011;64265;51.664;7.626;2023-02-28T10:07:51;2.10;;;1.90;;
2362;SDS011;64265;51.664;7.626;2023-02-28T10:10:26;3.15;;;2.00;;
2362;SDS011;64265;51.664;7.626;2023-02-28T10:12:56;2.05;;;1.80;;
2362;SDS011;64265;51.664;7.626;2023-02-28T10:15:27;1.80;;;1.70;;
2362;SDS011;64265;51.664;7.626;2023-02-28T10:17:59;2.80;;;2.60;;
2362;SDS011;64265;51.664;7.626;2023-02-28T10:20:28;1.90;;;1.80;;
2362;SDS011;64265;51.664;7.626;2023-02-28T10:23:01;4.35;;;2.35;;
2362;SDS011;64265;51.664;7.626;2023-02-28T10:25:33;2.88;;;2.03;;
2362;SDS011;64265;51.664;7.626;2023-02-28T10:28:05;2.53;;;2.33;;
2362;SDS011;64265;51.664;7.626;2023-02-28T10:30:39;8.93;;;3.05;;
2362;SDS011;64265;51.664;7.626;2023-02-28T10:33:12;9.02;;;2.60;;
2362;SDS011;64265;51.664;7.626;2023-02-28T10:35:44;4.72;;;2.30;;
2362;SDS011;64265;51.664;7.626;2023-02-28T10:38:14;4.68;;;2.10;;
2362;SDS011;64265;51.664;7.626;2023-02-28T10:40:43;2.53;;;2.30;;
2362;SDS011;64265;51.664;7.626;2023-02-28T10:43:17;2.70;;;1.90;;
2362;SDS011;64265;51.664;7.626;2023-02-28T10:45:55;3.28;;;1.75;;
2362;SDS011;64265;51.664;7.626;2023-02-28T10:48:26;2.17;;;1.88;;
2362;SDS011;64265;51.664;7.626;2023-02-28T10:50:57;1.77;;;1.50;;
2362;SDS011;64265;51.664;7.626;2023-02-28T10:53:28;2.20;;;1.67;;
2362;SDS011;64265;51.664;7.626;2023-02-28T10:55:59;2.28;;;1.65;;
2362;SDS011;64265;51.664;7.626;2023-02-28T10:58:28;1.85;;;1.42;;
2362;SDS011;64265;51.664;7.626;2023-02-28T11:00:58;1.67;;;1.50;;
2362;SDS011;64265;51.664;7.626;2023-02-28T11:03:29;2.10;;;1.55;;
2362;SDS011;64265;51.664;7.626;2023-02-28T11:05:58;10.88;;;2.10;;
2362;SDS011;64265;51.664;7.626;2023-02-28T11:08:30;1.98;;;1.65;;
2362;SDS011;64265;51.664;7.626;2023-02-28T11:10:57;1.52;;;1.42;;
2362;SDS011;64265;51.664;7.626;2023-02-28T11:13:30;1.95;;;1.75;;
2362;SDS011;64265;51.664;7.626;2023-02-28T11:16:02;2.45;;;2.08;;
2362;SDS011;64265;51.664;7.626;2023-02-28T11:18:32;3.58;;;1.85;;
2362;SDS011;64265;51.664;7.626;2023-02-28T11:21:04;6.80;;;1.70;;
2362;SDS011;64265;51.664;7.626;2023-02-28T11:23:32;2.08;;;1.90;;
2362;SDS011;64265;51.664;7.626;2023-02-28T11:26:02;4.60;;;1.70;;
2362;SDS011;64265;51.664;7.626;2023-02-28T11:28:35;1.75;;;1.52;;
2362;SDS011;64265;51.664;7.626;2023-02-28T11:31:05;1.60;;;1.50;;
2362;SDS011;64265;51.664;7.626;2023-02-28T11:33:41;1.67;;;1.50;;
2362;SDS011;64265;51.664;7.626;2023-02-28T11:36:11;2.05;;;1.48;;
2362;SDS011;64265;51.664;7.626;2023-02-28T11:38:39;1.63;;;1.52;;
2362;SDS011;64265;51.664;7.626;2023-02-28T11:46:49;2.25;;;1.60;;
2362;SDS011;64265;51.664;7.626;2023-02-28T11:49:22;2.50;;;1.70;;
2362;SDS011;64265;51.664;7.626;2023-02-28T11:51:56;2.10;;;1.40;;
2362;SDS011;64265;51.664;7.626;2023-02-28T11:54:31;4.17;;;1.60;;
2362;SDS011;64265;51.664;7.626;2023-02-28T11:57:15;1.67;;;1.50;;
2362;SDS011;64265;51.664;7.626;2023-02-28T11:59:56;2.50;;;1.48;;
2362;SDS011;64265;51.664;7.626;2023-02-28T12:02:31;1.70;;;1.40;;
2362;SDS011;64265;51.664;7.626;2023-02-28T12:05:15;3.15;;;1.77;;
2362;SDS011;64265;51.664;7.626;2023-02-28T12:07:52;1.70;;;1.30;;
2362;SDS011;64265;51.664;7.626;2023-02-28T12:10:28;1.80;;;1.50;;
2362;SDS011;64265;51.664;7.626;2023-02-28T12:13:05;1.70;;;1.53;;
2362;SDS011;64265;51.664;7.626;2023-02-28T12:18:41;1.60;;;1.23;;
2362;SDS011;64265;51.664;7.626;2023-02-28T12:21:19;2.00;;;1.80;;
2362;SDS011;64265;51.664;7.626;2023-02-28T12:24:01;2.00;;;1.80;;
2362;SDS011;64265;51.664;7.626;2023-02-28T12:26:40;1.67;;;1.40;;
2362;SDS011;64265;51.664;7.626;2023-02-28T12:29:10;1.42;;;1.33;;
2362;SDS011;64265;51.664;7.626;2023-02-28T12:31:45;1.97;;;1.80;;
2362;SDS011;64265;51.664;7.626;2023-02-28T12:34:18;3.03;;;1.30;;
2362;SDS011;64265;51.664;7.626;2023-02-28T12:36:47;1.60;;;1.33;;
2362;SDS011;64265;51.664;7.626;2023-02-28T12:39:17;1.80;;;1.70;;
2362;SDS011;64265;51.664;7.626;2023-02-28T12:41:47;1.57;;;1.40;;
2362;SDS011;64265;51.664;7.626;2023-02-28T12:44:19;1.50;;;1.33;;
2362;SDS011;64265;51.664;7.626;2023-02-28T12:46:50;1.70;;;1.53;;
2362;SDS011;64265;51.664;7.626;2023-02-28T12:49:21;1.77;;;1.67;;
2362;SDS011;64265;51.664;7.626;2023-02-28T12:51:51;1.33;;;1.23;;
2362;SDS011;64265;51.664;7.626;2023-02-28T12:54:20;1.67;;;1.57;;
2362;SDS011;64265;51.664;7.626;2023-02-28T12:56:53;1.40;;;1.30;;
2362;SDS011;64265;51.664;7.626;2023-02-28T12:59:30;1.33;;;1.20;;
2362;SDS011;64265;51.664;7.626;2023-02-28T13:05:24;1.57;;;1.30;;
2362;SDS011;64265;51.664;7.626;2023-02-28T13:10:52;1.75;;;1.65;;
2362;SDS011;64265;51.664;7.626;2023-02-28T13:13:20;1.70;;;1.30;;
2362;SDS011;64265;51.664;7.626;2023-02-28T13:15:59;2.13;;;1.60;;
2362;SDS011;64265;51.664;7.626;2023-02-28T13:18:31;2.00;;;1.30;;
2362;SDS011;64265;51.664;7.626;2023-02-28T13:21:02;1.50;;;1.30;;
2362;SDS011;64265;51.664;7.626;2023-02-28T13:23:39;1.40;;;1.25;;
2362;SDS011;64265;51.664;7.626;2023-02-28T13:26:23;1.43;;;1.23;;
2362;SDS011;64265;51.664;7.626;2023-02-28T13:29:28;1.30;;;1.20;;
2362;SDS011;64265;51.664;7.626;2023-02-28T13:35:14;1.75;;;1.27;;
2362;SDS011;64265;51.664;7.626;2023-02-28T13:40:47;1.30;;;1.20;;
2362;SDS011;64265;51.664;7.626;2023-02-28T13:43:16;1.85;;;1.67;;
2362;SDS011;64265;51.664;7.626;2023-02-28T13:48:34;1.40;;;1.30;;
2362;SDS011;64265;51.664;7.626;2023-02-28T13:51:00;2.08;;;1.70;;
2362;SDS011;64265;51.664;7.626;2023-02-28T13:54:12;3.15;;;2.10;;
2362;SDS011;64265;51.664;7.626;2023-02-28T13:56:51;1.77;;;1.60;;
2362;SDS011;64265;51.664;7.626;2023-02-28T13:59:28;1.80;;;1.40;;
2362;SDS011;64265;51.664;7.626;2023-02-28T14:02:11;1.55;;;1.38;;
2362;SDS011;64265;51.664;7.626;2023-02-28T14:05:00;2.42;;;1.60;;
2362;SDS011;64265;51.664;7.626;2023-02-28T14:07:32;1.70;;;1.60;;
2362;SDS011;64265;51.664;7.626;2023-02-28T14:10:06;1.83;;;1.47;;
2362;SDS011;64265;51.664;7.626;2023-02-28T14:12:56;1.80;;;1.70;;
2362;SDS011;64265;51.664;7.626;2023-02-28T14:18:21;1.25;;;1.15;;
2362;SDS011;64265;51.664;7.626;2023-02-28T14:20:52;1.73;;;1.63;;
2362;SDS011;64265;51.664;7.626;2023-02-28T14:23:34;1.40;;;1.30;;
2362;SDS011;64265;51.664;7.626;2023-02-28T14:26:32;1.43;;;1.33;;
2362;SDS011;64265;51.664;7.626;2023-02-28T14:32:31;1.60;;;1.50;;
2362;SDS011;64265;51.664;7.626;2023-02-28T14:35:03;1.42;;;1.33;;
2362;SDS011;64265;51.664;7.626;2023-02-28T14:37:39;1.57;;;1.07;;
2362;SDS011;64265;51.664;7.626;2023-02-28T14:40:12;1.57;;;1.47;;
2362;SDS011;64265;51.664;7.626;2023-02-28T14:42:45;1.30;;;1.20;;
2362;SDS011;64265;51.664;7.626;2023-02-28T14:45:17;1.73;;;1.40;;
2362;SDS011;64265;51.664;7.626;2023-02-28T14:47:45;2.03;;;1.60;;
2362;SDS011;64265;51.664;7.626;2023-02-28T14:50:17;1.10;;;1.00;;
2362;SDS011;64265;51.664;7.626;2023-02-28T14:52:45;1.33;;;1.20;;
2362;SDS011;64265;51.664;7.626;2023-02-28T14:55:12;1.40;;;1.27;;
2362;SDS011;64265;51.664;7.626;2023-02-28T14:57:50;1.50;;;1.40;;
2362;SDS011;64265;51.664;7.626;2023-02-28T15:00:20;1.53;;;1.33;;
2362;SDS011;64265;51.664;7.626;2023-02-28T15:02:49;1.80;;;1.40;;
2362;SDS011;64265;51.664;7.626;2023-02-28T15:05:25;1.33;;;1.23;;
2362;SDS011;64265;51.664;7.626;2023-02-28T15:08:04;1.20;;;1.10;;
2362;SDS011;64265;51.664;7.626;2023-02-28T15:10:36;1.77;;;1.30;;
2362;SDS011;64265;51.664;7.626;2023-02-28T15:13:06;1.50;;;1.40;;
2362;SDS011;64265;51.664;7.626;2023-02-28T15:15:41;1.30;;;1.20;;
2362;SDS011;64265;51.664;7.626;2023-02-28T15:18:14;1.30;;;1.20;;
2362;SDS011;64265;51.664;7.626;2023-02-28T15:20:45;1.50;;;1.00;;
2362;SDS011;64265;51.664;7.626;2023-02-28T15:23:12;1.97;;;1.77;;
2362;SDS011;64265;51.664;7.626;2023-02-28T15:25:40;1.33;;;1.20;;
2362;SDS011;64265;51.664;7.626;2023-02-28T15:28:11;2.33;;;1.40;;
2362;SDS011;64265;51.664;7.626;2023-02-28T15:30:50;1.87;;;1.20;;
2362;SDS011;64265;51.664;7.626;2023-02-28T15:33:19;3.00;;;1.30;;
2362;SDS011;64265;51.664;7.626;2023-02-28T15:35:48;1.20;;;1.10;;
2362;SDS011;64265;51.664;7.626;2023-02-28T15:38:17;1.50;;;1.30;;
2362;SDS011;64265;51.664;7.626;2023-02-28T15:40:50;1.77;;;1.67;;
2362;SDS011;64265;51.664;7.626;2023-02-28T15:43:24;1.43;;;1.33;;
2362;SDS011;64265;51.664;7.626;2023-02-28T15:45:52;2.13;;;1.00;;
2362;SDS011;64265;51.664;7.626;2023-02-28T15:48:24;1.50;;;1.40;;
2362;SDS011;64265;51.664;7.626;2023-02-28T15:50:53;1.20;;;1.10;;
2362;SDS011;64265;51.664;7.626;2023-02-28T15:53:22;1.53;;;1.00;;
2362;SDS011;64265;51.664;7.626;2023-02-28T15:55:52;1.40;;;1.10;;
2362;SDS011;64265;51.664;7.626;2023-02-28T15:58:21;1.10;;;0.90;;
2362;SDS011;64265;51.664;7.626;2023-02-28T16:01:07;2.73;;;1.40;;
2362;SDS011;64265;51.664;7.626;2023-02-28T16:03:44;1.20;;;1.10;;
2362;SDS011;64265;51.664;7.626;2023-02-28T16:08:59;1.77;;;1.20;;
2362;SDS011;64265;51.664;7.626;2023-02-28T16:11:26;1.77;;;1.47;;
2362;SDS011;64265;51.664;7.626;2023-02-28T16:13:55;1.42;;;1.25;;
2362;SDS011;64265;51.664;7.626;2023-02-28T16:16:23;1.60;;;1.23;;
2362;SDS011;64265;51.664;7.626;2023-02-28T16:18:50;1.60;;;1.20;;
2362;SDS011;64265;51.664;7.626;2023-02-28T16:21:18;2.50;;;1.08;;
2362;SDS011;64265;51.664;7.626;2023-02-28T16:23:44;2.10;;;1.37;;
2362;SDS011;64265;51.664;7.626;2023-02-28T16:26:17;2.13;;;1.43;;
2362;SDS011;64265;51.664;7.626;2023-02-28T16:28:47;1.30;;;1.20;;
2362;SDS011;64265;51.664;7.626;2023-02-28T16:31:15;1.57;;;1.30;;
2362;SDS011;64265;51.664;7.626;2023-02-28T16:33:43;2.03;;;1.50;;
2362;SDS011;64265;51.664;7.626;2023-02-28T16:36:12;1.60;;;1.30;;
2362;SDS011;64265;51.664;7.626;2023-02-28T16:38:40;1.40;;;1.10;;
2362;SDS011;64265;51.664;7.626;2023-02-28T16:41:07;1.60;;;1.50;;
2362;SDS011;64265;51.664;7.626;2023-02-28T16:43:41;1.77;;;1.53;;